Time;durP1;ratioP1;P1;durP2;ratioP2;P2;SDS_P1;SDS_P2;PMS_P1;PMS_P2;Temp;Humidity;BMP_temperature;BMP_pressure;BME280_temperature;BME280_humidity;BME280_pressure;Samples;Min_cycle;Max_cycle;Signal;HPM_P1;HPM_P2
2023/04/26 00:01:59;;;;;;;5.30;3.78;;;13.20;66.50;;;;;;5062562;28;20028;-61
2023/04/26 00:04:27;;;;;;;4.70;3.60;;;13.20;66.50;;;;;;5077038;28;20028;-60
2023/04/26 00:06:53;;;;;;;5.22;3.80;;;13.20;66.50;;;;;;5066965;28;20016;-64
2023/04/26 00:09:19;;;;;;;4.85;3.60;;;13.20;66.50;;;;;;5078901;28;20038;-64
2023/04/26 00:11:45;;;;;;;5.20;3.55;;;13.20;66.40;;;;;;5069592;28;20095;-65
2023/04/26 00:14:10;;;;;;;6.32;4.35;;;13.30;66.80;;;;;;5073893;28;20040;-65
2023/04/26 00:16:36;;;;;;;6.65;4.15;;;13.30;66.70;;;;;;5069050;28;20025;-57
2023/04/26 00:19:03;;;;;;;6.18;4.65;;;13.30;66.80;;;;;;5068017;28;20534;-56
2023/04/26 00:21:29;;;;;;;7.35;4.85;;;13.40;66.80;;;;;;5069604;28;20039;-58
2023/04/26 00:23:54;;;;;;;5.10;4.30;;;13.30;66.70;;;;;;5078819;28;20937;-55
2023/04/26 00:26:20;;;;;;;5.88;4.43;;;13.40;66.80;;;;;;5074496;28;20029;-67
2023/04/26 00:28:46;;;;;;;5.32;4.22;;;13.40;66.60;;;;;;5065271;28;20069;-66
2023/04/26 00:31:15;;;;;;;6.15;4.85;;;13.40;66.60;;;;;;5072834;28;20086;-57
2023/04/26 00:33:41;;;;;;;5.07;4.28;;;13.40;66.60;;;;;;5068709;28;20344;-55
2023/04/26 00:36:07;;;;;;;5.78;4.60;;;13.40;66.60;;;;;;5069710;28;20033;-63
2023/04/26 00:38:32;;;;;;;5.43;4.50;;;13.40;66.50;;;;;;5064830;28;20504;-62
2023/04/26 00:40:58;;;;;;;5.38;4.55;;;13.40;66.50;;;;;;5064281;28;20141;-63
2023/04/26 00:43:23;;;;;;;6.88;4.80;;;13.40;66.50;;;;;;5069923;28;20028;-62
2023/04/26 00:45:50;;;;;;;6.10;5.13;;;13.50;66.60;;;;;;5064466;28;20112;-65
2023/04/26 00:48:17;;;;;;;6.53;5.60;;;13.50;66.50;;;;;;5077958;28;20024;-65
2023/04/26 00:50:43;;;;;;;7.65;5.50;;;13.50;66.30;;;;;;5072201;28;20103;-57
2023/04/26 00:53:10;;;;;;;6.85;4.70;;;13.50;66.30;;;;;;5069940;28;20151;-58
2023/04/26 00:55:36;;;;;;;6.47;5.10;;;13.50;66.30;;;;;;5074835;28;20028;-65
2023/04/26 00:58:02;;;;;;;6.75;5.18;;;13.50;66.30;;;;;;5075865;28;20027;-67
2023/04/26 01:00:28;;;;;;;8.38;5.60;;;13.60;66.20;;;;;;5085156;28;20088;-62
2023/04/26 01:02:54;;;;;;;11.70;7.53;;;13.60;66.20;;;;;;5064553;28;20072;-61
2023/04/26 01:05:19;;;;;;;11.32;7.55;;;13.60;66.10;;;;;;5071971;28;20059;-61
2023/04/26 01:07:45;;;;;;;10.00;7.55;;;13.60;66.00;;;;;;5082501;28;20024;-65
2023/04/26 01:10:11;;;;;;;11.20;7.70;;;13.60;65.90;;;;;;5069347;28;20477;-59
2023/04/26 01:12:37;;;;;;;11.23;7.75;;;13.60;65.90;;;;;;5074656;28;20056;-59
2023/04/26 01:15:04;;;;;;;8.40;6.82;;;13.60;65.80;;;;;;5072625;28;20036;-59
2023/04/26 01:17:30;;;;;;;10.07;6.88;;;13.60;66.40;;;;;;5073228;28;20429;-60
2023/04/26 01:19:56;;;;;;;10.70;7.15;;;13.60;65.70;;;;;;5074323;28;20115;-61
2023/04/26 01:22:21;;;;;;;10.07;6.68;;;13.60;65.60;;;;;;5076108;28;20016;-61
2023/04/26 01:24:50;;;;;;;9.10;6.38;;;13.70;65.70;;;;;;5078141;28;20123;-61
2023/04/26 01:27:16;;;;;;;8.48;5.60;;;13.60;65.70;;;;;;5067443;28;20036;-61
2023/04/26 01:29:42;;;;;;;6.70;5.40;;;13.60;65.70;;;;;;5079308;28;20461;-61
2023/04/26 01:32:08;;;;;;;7.00;5.85;;;13.60;65.60;;;;;;5081724;28;20095;-60
2023/04/26 01:34:33;;;;;;;7.70;5.82;;;13.60;65.50;;;;;;5071259;28;20025;-61
2023/04/26 01:37:02;;;;;;;7.85;5.55;;;13.60;65.50;;;;;;5072279;28;20070;-62
2023/04/26 01:39:28;;;;;;;9.13;6.40;;;13.60;65.50;;;;;;5077626;28;20409;-61
2023/04/26 01:41:57;;;;;;;11.60;6.63;;;13.60;65.50;;;;;;5082844;28;20078;-62
2023/04/26 01:44:23;;;;;;;14.32;7.90;;;13.60;65.50;;;;;;5067564;28;20040;-61
2023/04/26 01:46:48;;;;;;;14.07;7.93;;;13.60;65.50;;;;;;5074421;28;20355;-62
2023/04/26 01:49:14;;;;;;;12.55;7.35;;;13.60;65.50;;;;;;5072425;28;20485;-61
2023/04/26 01:51:40;;;;;;;17.30;9.40;;;13.70;65.60;;;;;;5074104;28;20028;-62
2023/04/26 01:54:06;;;;;;;14.60;9.05;;;13.70;65.60;;;;;;5077337;28;20424;-62
2023/04/26 01:56:31;;;;;;;17.63;8.70;;;13.70;65.50;;;;;;5082114;28;20024;-61
2023/04/26 01:58:58;;;;;;;11.88;8.13;;;13.70;65.50;;;;;;5080190;28;20059;-62
2023/04/26 02:01:24;;;;;;;14.77;7.60;;;13.70;65.70;;;;;;5078872;28;20081;-61
2023/04/26 02:03:50;;;;;;;11.50;6.85;;;13.70;65.70;;;;;;5073184;28;20024;-61
2023/04/26 02:06:15;;;;;;;8.45;6.10;;;13.70;65.70;;;;;;5081005;28;20566;-61
2023/04/26 02:08:41;;;;;;;9.25;6.25;;;13.70;65.70;;;;;;5078090;28;20020;-61
2023/04/26 02:11:07;;;;;;;8.50;5.68;;;13.70;65.90;;;;;;5079844;28;20043;-56
2023/04/26 02:13:32;;;;;;;8.02;5.25;;;13.70;65.70;;;;;;5059705;28;20040;-59
2023/04/26 02:15:58;;;;;;;7.85;5.88;;;13.70;65.80;;;;;;5077900;28;20058;-63
2023/04/26 02:18:24;;;;;;;9.80;6.30;;;13.70;65.90;;;;;;5073379;28;20032;-63
2023/04/26 02:20:50;;;;;;;8.60;6.20;;;13.70;65.90;;;;;;5079254;28;20115;-63
2023/04/26 02:23:16;;;;;;;11.00;6.90;;;13.70;65.90;;;;;;5060995;28;20471;-62
2023/04/26 02:25:45;;;;;;;10.23;6.07;;;13.80;66.00;;;;;;5078995;28;20467;-62
2023/04/26 02:28:10;;;;;;;7.60;5.57;;;13.70;65.90;;;;;;5073957;28;20031;-61
2023/04/26 02:30:36;;;;;;;6.72;5.22;;;13.80;66.00;;;;;;5084600;28;20040;-62
2023/04/26 02:33:02;;;;;;;6.50;5.00;;;13.80;66.00;;;;;;5071287;28;20036;-62
2023/04/26 02:35:27;;;;;;;5.07;4.50;;;13.80;66.00;;;;;;5070960;28;20039;-62
2023/04/26 02:37:53;;;;;;;5.00;3.92;;;13.70;66.00;;;;;;5073465;28;20020;-62
2023/04/26 02:40:19;;;;;;;4.93;3.67;;;13.70;66.00;;;;;;5078040;28;20028;-62
2023/04/26 02:42:45;;;;;;;6.03;3.85;;;13.70;66.10;;;;;;5062183;28;20032;-63
2023/04/26 02:45:11;;;;;;;4.72;4.20;;;13.70;66.10;;;;;;5068733;28;20028;-62
2023/04/26 02:47:37;;;;;;;4.70;3.70;;;13.70;66.00;;;;;;5078264;28;20036;-63
2023/04/26 02:50:04;;;;;;;5.13;4.13;;;13.70;66.10;;;;;;5081355;28;20028;-62
2023/04/26 02:52:30;;;;;;;4.25;3.60;;;13.60;65.90;;;;;;5071200;28;20674;-62
2023/04/26 02:54:56;;;;;;;5.85;3.83;;;13.60;66.00;;;;;;5073100;28;20090;-62
2023/04/26 02:57:21;;;;;;;5.18;3.83;;;13.50;66.00;;;;;;5061083;28;20040;-62
2023/04/26 02:59:47;;;;;;;4.72;3.88;;;13.50;66.10;;;;;;5066460;28;20037;-62
2023/04/26 03:02:12;;;;;;;5.93;4.13;;;13.50;66.30;;;;;;5069639;28;20039;-61
2023/04/26 03:04:38;;;;;;;7.07;4.00;;;13.50;66.40;;;;;;5070758;28;20039;-62
2023/04/26 03:07:04;;;;;;;6.25;4.38;;;13.50;66.40;;;;;;5077350;28;20019;-62
2023/04/26 03:09:30;;;;;;;5.10;3.92;;;13.50;66.50;;;;;;5067499;28;20037;-63
2023/04/26 03:11:56;;;;;;;4.88;4.00;;;13.50;66.40;;;;;;5073243;28;20513;-63
2023/04/26 03:14:22;;;;;;;4.50;3.45;;;13.50;66.50;;;;;;5076582;28;20398;-62
2023/04/26 03:16:47;;;;;;;5.75;3.95;;;13.50;66.50;;;;;;5074266;28;20024;-61
2023/04/26 03:19:13;;;;;;;5.35;4.20;;;13.50;66.60;;;;;;5074412;28;20037;-61
2023/04/26 03:21:39;;;;;;;4.72;4.03;;;13.50;66.60;;;;;;5068976;28;20085;-61
2023/04/26 03:24:05;;;;;;;5.63;4.18;;;13.50;66.60;;;;;;5084418;28;20032;-62
2023/04/26 03:26:31;;;;;;;8.00;4.50;;;13.50;66.50;;;;;;5076440;28;20034;-62
2023/04/26 03:28:57;;;;;;;6.22;4.80;;;13.50;66.40;;;;;;5074170;28;20516;-62
2023/04/26 03:31:22;;;;;;;7.18;5.30;;;13.50;66.50;;;;;;5079440;28;20017;-60
2023/04/26 03:33:48;;;;;;;7.70;5.18;;;13.50;66.50;;;;;;5076477;28;20039;-63
2023/04/26 03:36:14;;;;;;;7.50;5.47;;;13.50;67.10;;;;;;5068156;28;20021;-59
2023/04/26 03:38:41;;;;;;;8.13;5.40;;;13.50;66.40;;;;;;5067106;28;20027;-60
2023/04/26 03:41:07;;;;;;;5.32;4.57;;;13.50;66.40;;;;;;5071710;28;20020;-60
2023/04/26 03:43:33;;;;;;;7.57;5.10;;;13.50;66.40;;;;;;5075394;28;20461;-61
2023/04/26 03:45:59;;;;;;;7.38;4.90;;;13.50;66.40;;;;;;5073700;28;20091;-55
2023/04/26 03:48:26;;;;;;;5.15;4.40;;;13.50;66.40;;;;;;5088021;28;20028;-52
2023/04/26 03:50:52;;;;;;;5.63;4.30;;;13.50;66.30;;;;;;5073774;28;20025;-60
2023/04/26 03:53:17;;;;;;;5.22;4.43;;;13.50;67.00;;;;;;5073064;28;20051;-59
2023/04/26 03:55:43;;;;;;;4.82;4.07;;;13.50;66.50;;;;;;5070080;28;20036;-60
2023/04/26 03:58:09;;;;;;;5.60;4.43;;;13.50;66.60;;;;;;5064878;28;20104;-61
2023/04/26 04:00:38;;;;;;;7.78;5.03;;;13.50;66.90;;;;;;5069182;28;20520;-61
2023/04/26 04:03:05;;;;;;;5.47;4.75;;;13.50;67.00;;;;;;5067021;28;20033;-61
2023/04/26 04:05:31;;;;;;;5.43;4.70;;;13.50;67.00;;;;;;5082417;28;20035;-64
2023/04/26 04:07:57;;;;;;;6.70;5.32;;;13.50;67.10;;;;;;5083353;28;20386;-63
2023/04/26 04:10:22;;;;;;;8.00;5.82;;;13.50;67.20;;;;;;5068369;28;20036;-64
2023/04/26 04:12:49;;;;;;;6.03;5.35;;;13.50;67.50;;;;;;5073273;28;20055;-64
2023/04/26 04:15:15;;;;;;;9.75;5.82;;;13.50;67.70;;;;;;5073239;28;20035;-62
2023/04/26 04:17:41;;;;;;;7.55;5.35;;;13.50;67.90;;;;;;5078972;28;20040;-61
2023/04/26 04:20:07;;;;;;;5.93;5.15;;;13.50;68.20;;;;;;5073468;28;20043;-61
2023/04/26 04:22:33;;;;;;;6.82;5.05;;;13.50;68.40;;;;;;5085836;28;20048;-61
2023/04/26 04:24:59;;;;;;;6.63;5.45;;;13.50;68.60;;;;;;5072581;28;20033;-61
2023/04/26 04:27:25;;;;;;;6.85;5.05;;;13.40;68.60;;;;;;5076792;28;20115;-62
2023/04/26 04:29:55;;;;;;;7.70;4.75;;;13.40;68.80;;;;;;5080438;28;20483;-61
2023/04/26 04:32:22;;;;;;;7.57;5.25;;;13.40;69.10;;;;;;5080696;28;20352;-62
2023/04/26 04:34:50;;;;;;;6.97;4.75;;;13.40;69.10;;;;;;5072030;28;20032;-62
2023/04/26 04:37:17;;;;;;;5.78;4.78;;;13.40;69.40;;;;;;5073028;28;20032;-62
2023/04/26 04:39:43;;;;;;;7.32;5.60;;;13.40;69.20;;;;;;5072880;28;20021;-61
2023/04/26 04:42:09;;;;;;;7.32;5.28;;;13.40;69.40;;;;;;5074676;28;20157;-62
2023/04/26 04:44:35;;;;;;;7.88;5.30;;;13.40;69.60;;;;;;5073432;28;20032;-63
2023/04/26 04:47:01;;;;;;;7.63;5.18;;;13.40;69.60;;;;;;5086343;28;20028;-58
2023/04/26 04:49:27;;;;;;;8.35;5.18;;;13.50;69.70;;;;;;5078832;28;20038;-57
2023/04/26 04:51:53;;;;;;;6.82;4.93;;;13.50;69.70;;;;;;5072101;28;20016;-63
2023/04/26 04:54:19;;;;;;;5.70;4.78;;;13.50;69.70;;;;;;5071018;28;20036;-63
2023/04/26 04:56:45;;;;;;;8.93;4.93;;;13.50;69.60;;;;;;5071752;28;20131;-62
2023/04/26 04:59:11;;;;;;;6.97;5.20;;;13.60;69.60;;;;;;5069427;28;20371;-62
2023/04/26 05:01:37;;;;;;;6.35;4.55;;;13.60;69.50;;;;;;5067810;28;20550;-64
2023/04/26 05:04:03;;;;;;;7.93;4.95;;;13.70;69.70;;;;;;5069721;28;21259;-65
2023/04/26 05:06:32;;;;;;;6.20;4.80;;;13.70;69.70;;;;;;5069076;28;20442;-63
2023/04/26 05:08:58;;;;;;;5.97;4.47;;;13.80;69.80;;;;;;5073073;28;20037;-63
2023/04/26 05:11:24;;;;;;;6.60;4.80;;;13.80;69.80;;;;;;5070443;28;20538;-60
2023/04/26 05:13:50;;;;;;;6.90;4.47;;;13.90;69.80;;;;;;5078635;28;20063;-59
2023/04/26 05:16:16;;;;;;;7.78;4.43;;;13.90;69.80;;;;;;5072329;28;20522;-57
2023/04/26 05:18:42;;;;;;;6.45;4.72;;;14.00;69.70;;;;;;5065185;28;20031;-60
2023/04/26 05:21:07;;;;;;;6.95;4.70;;;14.20;69.80;;;;;;5068081;28;20036;-61
2023/04/26 05:23:33;;;;;;;7.00;4.60;;;14.30;69.60;;;;;;5061345;28;20125;-61
2023/04/26 05:26:05;;;;;;;6.90;4.45;;;14.40;69.40;;;;;;5060900;28;20062;-57
2023/04/26 05:28:31;;;;;;;4.78;4.20;;;14.50;69.20;;;;;;5050454;28;20049;-60
2023/04/26 05:30:58;;;;;;;6.78;4.40;;;14.60;69.30;;;;;;5055318;28;20037;-58
2023/04/26 05:33:24;;;;;;;5.80;4.25;;;14.80;69.40;;;;;;5065541;28;20128;-56
2023/04/26 05:35:51;;;;;;;6.68;3.90;;;15.00;69.10;;;;;;5069190;28;20111;-58
2023/04/26 05:38:17;;;;;;;4.70;3.80;;;15.30;68.80;;;;;;5066464;28;20152;-58
2023/04/26 05:40:42;;;;;;;6.07;3.97;;;15.60;68.50;;;;;;5065651;28;20021;-57
2023/04/26 05:43:08;;;;;;;6.13;3.88;;;15.80;68.10;;;;;;5068001;28;20037;-54
2023/04/26 05:45:34;;;;;;;4.32;3.92;;;16.00;67.80;;;;;;5061637;28;20089;-57
2023/04/26 05:48:00;;;;;;;4.45;3.50;;;16.20;67.20;;;;;;5073412;28;20016;-57
2023/04/26 05:50:25;;;;;;;4.50;3.47;;;16.30;66.70;;;;;;5079701;28;20039;-58
2023/04/26 05:52:51;;;;;;;4.57;3.83;;;16.30;66.30;;;;;;5064087;28;20448;-60
2023/04/26 05:55:18;;;;;;;4.78;3.63;;;16.30;66.20;;;;;;5068174;28;20044;-62
2023/04/26 05:57:44;;;;;;;4.05;3.50;;;16.30;66.10;;;;;;5071412;28;20039;-62
2023/04/26 06:00:12;;;;;;;7.03;3.78;;;16.30;66.10;;;;;;5068978;28;20025;-62
2023/04/26 06:02:38;;;;;;;4.95;3.72;;;16.40;66.10;;;;;;5053295;28;20124;-60
2023/04/26 06:05:05;;;;;;;4.47;3.42;;;16.40;66.00;;;;;;5059161;28;20033;-60
2023/04/26 06:07:31;;;;;;;5.13;3.88;;;16.40;65.90;;;;;;5063669;28;20029;-60
2023/04/26 06:09:57;;;;;;;4.60;3.70;;;16.50;65.90;;;;;;5070352;28;20027;-60
2023/04/26 06:12:22;;;;;;;5.88;4.20;;;16.50;65.80;;;;;;5074342;28;20455;-61
2023/04/26 06:14:48;;;;;;;4.18;3.60;;;16.60;65.70;;;;;;5074249;28;20093;-63
2023/04/26 06:17:14;;;;;;;5.40;3.88;;;16.60;65.50;;;;;;5056520;28;20036;-57
2023/04/26 06:19:39;;;;;;;6.25;3.55;;;16.70;65.30;;;;;;5058329;28;20816;-56
2023/04/26 06:22:05;;;;;;;4.68;3.60;;;16.70;65.20;;;;;;5056683;28;20410;-54
2023/04/26 06:24:31;;;;;;;5.68;3.63;;;16.60;64.90;;;;;;5055142;28;20044;-57
2023/04/26 06:26:56;;;;;;;7.38;3.92;;;16.60;64.90;;;;;;5053258;28;20074;-53
2023/04/26 06:29:22;;;;;;;4.22;3.50;;;16.60;65.00;;;;;;5054309;28;20139;-56
2023/04/26 06:31:48;;;;;;;5.85;3.60;;;16.60;65.20;;;;;;5067676;28;20071;-56
2023/04/26 06:34:13;;;;;;;5.47;3.17;;;16.70;65.10;;;;;;5055739;28;20071;-54
2023/04/26 06:36:39;;;;;;;5.55;4.07;;;16.70;65.00;;;;;;5054103;28;20021;-60
2023/04/26 06:39:05;;;;;;;4.97;3.60;;;16.70;64.90;;;;;;5062773;28;20091;-60
2023/04/26 06:41:30;;;;;;;5.00;3.42;;;16.80;65.10;;;;;;5057769;28;20036;-59
2023/04/26 06:43:56;;;;;;;5.93;3.83;;;16.80;65.00;;;;;;5059505;28;20037;-60
2023/04/26 06:46:22;;;;;;;6.03;3.80;;;16.90;64.90;;;;;;5056792;28;20367;-60
2023/04/26 06:48:47;;;;;;;4.88;3.72;;;17.00;64.90;;;;;;5054021;28;20738;-61
2023/04/26 06:51:13;;;;;;;5.13;3.67;;;17.10;64.80;;;;;;5064468;28;20054;-61
2023/04/26 06:53:40;;;;;;;5.13;3.58;;;17.20;64.60;;;;;;5058228;28;20116;-66
2023/04/26 06:56:06;;;;;;;5.97;3.72;;;17.20;64.40;;;;;;5053316;28;20016;-61
2023/04/26 06:58:31;;;;;;;5.22;3.60;;;17.30;64.30;;;;;;5043881;28;20578;-62
2023/04/26 07:00:57;;;;;;;5.50;3.60;;;17.40;64.10;;;;;;5044397;28;20029;-63
2023/04/26 07:03:23;;;;;;;4.60;3.58;;;17.50;63.90;;;;;;5041211;28;21755;-63
2023/04/26 07:05:49;;;;;;;4.55;3.40;;;17.60;63.80;;;;;;5046429;28;20124;-62
2023/04/26 07:08:14;;;;;;;5.72;3.45;;;17.70;63.70;;;;;;5047939;28;20032;-62
2023/04/26 07:10:40;;;;;;;4.43;3.60;;;17.70;63.40;;;;;;5046041;28;20076;-62
2023/04/26 07:13:06;;;;;;;5.22;3.60;;;17.80;63.30;;;;;;5047128;28;20766;-63
2023/04/26 07:15:32;;;;;;;4.50;3.20;;;17.90;62.90;;;;;;5051785;28;20025;-62
2023/04/26 07:17:57;;;;;;;3.67;3.20;;;18.00;62.70;;;;;;5042532;28;21779;-64
2023/04/26 07:20:23;;;;;;;4.38;3.50;;;18.10;62.30;;;;;;5046963;28;20447;-62
2023/04/26 07:22:49;;;;;;;3.63;3.05;;;18.20;62.00;;;;;;5043943;28;20552;-63
2023/04/26 07:25:16;;;;;;;4.15;3.15;;;18.30;61.30;;;;;;5048514;28;20471;-64
2023/04/26 07:27:41;;;;;;;5.00;2.90;;;18.40;60.50;;;;;;5051452;28;20063;-62
2023/04/26 07:30:09;;;;;;;4.45;2.75;;;18.40;60.00;;;;;;5050977;28;20030;-63
2023/04/26 07:32:35;;;;;;;4.07;2.80;;;18.40;59.60;;;;;;5033233;28;20413;-63
2023/04/26 07:35:03;;;;;;;4.18;2.60;;;18.50;59.20;;;;;;5047512;28;20855;-62
2023/04/26 07:37:28;;;;;;;3.83;2.70;;;18.50;58.90;;;;;;5021158;28;20036;-63
2023/04/26 07:39:54;;;;;;;4.72;2.63;;;18.50;58.70;;;;;;5049016;28;20028;-63
2023/04/26 07:42:20;;;;;;;3.83;2.72;;;18.50;58.40;;;;;;5049747;28;20106;-61
2023/04/26 07:44:48;;;;;;;3.45;2.70;;;18.50;58.20;;;;;;5042906;28;20028;-63
2023/04/26 07:47:14;;;;;;;4.05;2.90;;;18.60;57.80;;;;;;5034730;28;20040;-61
2023/04/26 07:49:40;;;;;;;3.78;2.70;;;18.60;57.80;;;;;;5051189;28;20035;-61
2023/04/26 07:52:07;;;;;;;4.80;2.80;;;18.60;57.40;;;;;;5048250;28;20185;-62
2023/04/26 07:54:33;;;;;;;4.05;2.67;;;18.60;57.00;;;;;;5048571;28;20033;-62
2023/04/26 07:56:59;;;;;;;2.90;2.60;;;18.60;56.70;;;;;;5050174;28;20401;-61
2023/04/26 07:59:25;;;;;;;5.00;2.55;;;18.60;56.30;;;;;;5035619;28;20021;-61
2023/04/26 08:01:51;;;;;;;2.63;2.40;;;18.60;56.00;;;;;;5032833;28;20039;-61
2023/04/26 08:04:33;;;;;;;3.55;2.70;;;18.50;56.00;;;;;;5035329;28;20114;-61
2023/04/26 08:07:00;;;;;;;3.33;2.75;;;18.50;56.00;;;;;;5042610;28;20033;-62
2023/04/26 08:09:30;;;;;;;3.45;2.60;;;18.50;55.90;;;;;;5044540;28;20916;-61
2023/04/26 08:11:56;;;;;;;3.30;2.85;;;18.50;55.60;;;;;;5047518;28;20041;-62
2023/04/26 08:14:22;;;;;;;3.30;2.63;;;18.50;55.60;;;;;;5036444;28;20094;-63
2023/04/26 08:16:48;;;;;;;3.22;2.55;;;18.50;55.40;;;;;;5036071;28;20024;-63
2023/04/26 08:19:13;;;;;;;5.07;2.63;;;18.50;55.20;;;;;;5052472;28;20032;-62
2023/04/26 08:21:39;;;;;;;4.03;2.28;;;18.40;55.20;;;;;;5041961;28;20029;-62
2023/04/26 08:24:05;;;;;;;3.20;2.53;;;18.40;55.30;;;;;;5038906;28;20575;-61
2023/04/26 08:26:30;;;;;;;3.22;2.45;;;18.40;55.30;;;;;;5032134;28;20070;-61
2023/04/26 08:28:56;;;;;;;2.53;2.25;;;18.50;55.40;;;;;;5043053;28;20429;-63
2023/04/26 08:31:22;;;;;;;3.35;2.38;;;18.50;55.50;;;;;;5042602;28;21050;-62
2023/04/26 08:33:48;;;;;;;4.00;2.95;;;18.60;55.40;;;;;;5059341;28;20040;-62
2023/04/26 08:36:14;;;;;;;4.57;2.60;;;18.60;55.30;;;;;;5041671;28;20581;-62
2023/04/26 08:38:39;;;;;;;3.40;2.42;;;18.60;55.30;;;;;;5043083;28;20035;-62
2023/04/26 08:41:08;;;;;;;3.33;2.60;;;18.70;55.40;;;;;;5040293;28;20143;-63
2023/04/26 08:43:36;;;;;;;4.35;2.50;;;18.70;55.30;;;;;;5049940;28;20037;-63
2023/04/26 08:46:05;;;;;;;2.55;2.35;;;18.80;55.30;;;;;;5047114;28;20032;-62
2023/04/26 08:48:34;;;;;;;3.20;2.53;;;18.80;55.00;;;;;;5044639;28;20055;-60
2023/04/26 08:51:00;;;;;;;4.25;2.70;;;18.90;55.10;;;;;;5041016;28;20044;-63
2023/04/26 08:53:27;;;;;;;3.63;2.80;;;18.90;54.90;;;;;;5021279;28;20052;-62
2023/04/26 08:55:53;;;;;;;4.35;2.58;;;19.00;54.60;;;;;;5046421;28;20378;-60
2023/04/26 08:58:20;;;;;;;4.55;2.20;;;19.00;54.30;;;;;;5020042;28;20110;-59
2023/04/26 09:00:46;;;;;;;3.20;2.70;;;19.00;54.20;;;;;;5026543;28;20783;-65
2023/04/26 09:03:12;;;;;;;2.22;2.03;;;19.00;53.90;;;;;;5033792;28;20041;-62
2023/04/26 09:05:44;;;;;;;2.97;2.42;;;19.00;53.80;;;;;;5042525;28;20198;-64
2023/04/26 09:08:15;;;;;;;2.55;2.20;;;19.10;53.80;;;;;;5027426;28;20098;-61
2023/04/26 09:10:41;;;;;;;;;;;19.10;53.80;;;;;;5040838;28;20025;-61
2023/04/26 09:13:06;;;;;;;2.97;2.53;;;19.10;53.80;;;;;;5038656;28;20302;-60
2023/04/26 09:15:32;;;;;;;2.63;2.42;;;19.20;54.00;;;;;;5029179;28;20033;-61
2023/04/26 09:18:17;;;;;;;3.03;2.47;;;19.20;53.90;;;;;;5034309;28;20067;-61
2023/04/26 09:20:44;;;;;;;3.88;2.80;;;19.20;53.70;;;;;;5040417;28;20029;-60
2023/04/26 09:23:10;;;;;;;2.80;2.50;;;19.10;53.40;;;;;;5042737;28;20035;-60
2023/04/26 09:25:36;;;;;;;7.00;2.53;;;19.10;53.50;;;;;;5051318;28;20025;-58
2023/04/26 09:28:03;;;;;;;2.42;2.20;;;19.10;53.60;;;;;;5039417;28;20033;-57
2023/04/26 09:30:36;;;;;;;2.78;2.10;;;19.10;53.60;;;;;;5043321;28;20036;-58
2023/04/26 09:33:04;;;;;;;3.15;2.33;;;19.10;53.60;;;;;;5038577;28;20040;-56
2023/04/26 09:35:38;;;;;;;3.20;2.60;;;19.10;53.60;;;;;;5040416;28;20193;-58
2023/04/26 09:38:07;;;;;;;3.55;2.40;;;19.00;53.60;;;;;;5044831;28;20035;-57
2023/04/26 09:40:37;;;;;;;2.75;2.55;;;19.00;53.60;;;;;;5040188;28;20036;-55
2023/04/26 09:43:13;;;;;;;2.88;2.60;;;19.00;53.40;;;;;;5030069;28;20036;-56
2023/04/26 09:45:55;;;;;;;3.78;2.55;;;19.00;53.20;;;;;;5036935;28;20040;-57
2023/04/26 09:48:33;;;;;;;4.75;2.72;;;19.00;53.20;;;;;;5043910;28;20080;-58
2023/04/26 09:51:02;;;;;;;3.67;2.70;;;19.00;53.30;;;;;;5025632;28;20482;-58
2023/04/26 09:53:33;;;;;;;3.10;2.40;;;19.10;53.40;;;;;;5038843;28;20056;-57
2023/04/26 09:56:07;;;;;;;;;;;19.10;53.40;;;;;;5050280;28;20028;-58
2023/04/26 09:58:33;;;;;;;2.72;2.45;;;19.10;53.30;;;;;;5042835;28;19948;-58
2023/04/26 10:01:00;;;;;;;2.95;2.45;;;19.10;54.60;;;;;;5040306;28;20040;-58
2023/04/26 10:03:25;;;;;;;3.10;2.58;;;19.00;55.40;;;;;;5035132;28;20036;-56
2023/04/26 10:05:52;;;;;;;3.83;2.95;;;18.90;56.30;;;;;;5039113;28;20043;-56
2023/04/26 10:08:18;;;;;;;2.90;2.60;;;18.70;56.90;;;;;;5044017;28;20126;-58
2023/04/26 10:10:44;;;;;;;3.20;2.75;;;18.60;57.20;;;;;;5034955;28;20411;-57
2023/04/26 10:13:11;;;;;;;3.53;2.83;;;18.50;57.00;;;;;;5041118;28;20086;-56
2023/04/26 10:15:38;;;;;;;5.05;3.40;;;18.40;56.60;;;;;;5039688;28;21156;-55
2023/04/26 10:18:04;;;;;;;3.67;2.70;;;18.50;57.10;;;;;;5036728;28;20043;-56
2023/04/26 10:20:30;;;;;;;7.75;4.90;;;18.50;57.70;;;;;;5034229;28;20021;-60
2023/04/26 10:23:01;;;;;;;11.82;4.97;;;18.60;57.70;;;;;;5038816;28;21070;-59
2023/04/26 10:25:37;;;;;;;9.52;5.30;;;18.60;57.10;;;;;;5030993;28;20059;-59
2023/04/26 10:28:04;;;;;;;7.13;4.70;;;18.70;56.80;;;;;;5028564;28;20595;-58
2023/04/26 10:30:31;;;;;;;6.40;4.80;;;18.70;56.70;;;;;;5032365;28;20850;-61
2023/04/26 10:32:56;;;;;;;5.95;4.65;;;18.70;56.60;;;;;;5052668;28;20116;-59
2023/04/26 10:35:31;;;;;;;6.78;4.75;;;18.80;56.50;;;;;;5046367;28;20025;-60
2023/04/26 10:38:00;;;;;;;7.07;5.05;;;18.80;56.50;;;;;;5035880;28;20037;-58
2023/04/26 10:40:36;;;;;;;10.15;5.72;;;18.70;56.40;;;;;;5042177;28;22453;-58
2023/04/26 10:43:08;;;;;;;6.72;5.13;;;18.70;56.70;;;;;;5028075;28;20151;-58
2023/04/26 10:45:35;;;;;;;8.07;5.45;;;18.70;57.20;;;;;;5038264;28;20052;-60
2023/04/26 10:48:14;;;;;;;8.38;5.35;;;18.60;57.50;;;;;;5040148;28;20039;-59
2023/04/26 10:51:01;;;;;;;6.45;4.72;;;18.60;58.20;;;;;;5039851;28;20451;-60
2023/04/26 10:53:29;;;;;;;5.78;4.80;;;18.50;58.70;;;;;;5045461;28;20041;-61
2023/04/26 10:55:54;;;;;;;8.25;4.80;;;18.50;59.10;;;;;;5034417;28;21051;-60
2023/04/26 10:58:31;;;;;;;7.03;5.30;;;18.40;59.30;;;;;;5036236;28;20041;-60
2023/04/26 11:01:07;;;;;;;6.05;4.68;;;18.40;60.10;;;;;;5020534;28;20032;-60
2023/04/26 11:03:33;;;;;;;6.65;4.85;;;18.40;60.60;;;;;;5038983;28;20034;-60
2023/04/26 11:05:59;;;;;;;8.02;5.70;;;18.30;61.10;;;;;;5043573;28;20051;-60
2023/04/26 11:08:26;;;;;;;8.82;6.40;;;18.30;61.90;;;;;;5042208;28;20032;-61
2023/04/26 11:10:57;;;;;;;15.35;9.52;;;18.30;62.00;;;;;;5043059;28;20121;-61
2023/04/26 11:13:23;;;;;;;14.68;9.23;;;18.30;62.20;;;;;;5053676;28;20487;-61
2023/04/26 11:16:12;;;;;;;14.32;8.45;;;18.30;62.50;;;;;;5041360;28;20036;-61
2023/04/26 11:18:40;;;;;;;11.75;7.68;;;18.30;62.30;;;;;;5046505;28;20029;-61
2023/04/26 11:21:07;;;;;;;11.70;7.15;;;18.40;62.30;;;;;;5049252;28;20028;-61
2023/04/26 11:23:34;;;;;;;11.60;7.07;;;18.40;62.50;;;;;;5040732;28;20047;-60
2023/04/26 11:26:05;;;;;;;12.60;8.20;;;18.40;62.60;;;;;;5042294;28;20052;-61
2023/04/26 11:28:32;;;;;;;11.00;8.27;;;18.40;62.70;;;;;;5045242;28;20086;-61
2023/04/26 11:30:58;;;;;;;13.73;8.52;;;18.50;62.80;;;;;;5038184;28;20036;-61
2023/04/26 11:33:23;;;;;;;13.50;8.32;;;18.60;63.10;;;;;;5044157;28;20262;-61
2023/04/26 11:35:54;;;;;;;12.20;8.23;;;18.60;62.90;;;;;;5046391;28;20028;-56
2023/04/26 11:38:24;;;;;;;14.95;9.45;;;18.60;62.70;;;;;;5043901;28;20089;-59
2023/04/26 11:41:02;;;;;;;13.60;8.57;;;18.70;62.50;;;;;;5032023;28;20048;-59
2023/04/26 11:43:33;;;;;;;13.40;7.97;;;18.80;62.20;;;;;;5047338;28;20037;-58
2023/04/26 11:46:02;;;;;;;12.47;7.20;;;18.80;62.00;;;;;;5039718;28;20029;-59
2023/04/26 11:48:29;;;;;;;7.85;5.80;;;18.90;61.90;;;;;;5047924;28;20278;-58
2023/04/26 11:50:59;;;;;;;6.40;5.13;;;19.00;61.50;;;;;;5034534;28;20083;-59
2023/04/26 11:53:43;;;;;;;7.32;5.20;;;19.10;61.00;;;;;;5037610;28;20037;-59
2023/04/26 11:56:20;;;;;;;4.30;3.70;;;19.20;60.70;;;;;;5019575;28;20028;-58
2023/04/26 11:58:51;;;;;;;4.82;3.70;;;19.30;60.40;;;;;;5021989;28;20029;-57
2023/04/26 12:01:24;;;;;;;5.38;3.78;;;19.30;60.00;;;;;;5015220;28;20036;-58
2023/04/26 12:03:55;;;;;;;4.97;3.40;;;19.40;59.80;;;;;;5011605;28;20060;-56
2023/04/26 12:06:49;;;;;;;4.05;3.33;;;19.40;59.60;;;;;;5027444;28;20036;-59
2023/04/26 12:09:16;;;;;;;4.97;3.30;;;19.30;59.40;;;;;;5037726;28;20089;-57
2023/04/26 12:11:48;;;;;;;4.28;3.22;;;19.30;59.00;;;;;;5029985;28;20021;-57
2023/04/26 12:14:15;;;;;;;4.70;3.25;;;19.20;58.50;;;;;;5032386;28;20055;-58
2023/04/26 12:16:42;;;;;;;3.35;2.88;;;19.10;58.40;;;;;;5036657;28;20039;-58
2023/04/26 12:19:07;;;;;;;3.45;2.80;;;19.00;58.10;;;;;;5048839;28;20926;-59
2023/04/26 12:21:43;;;;;;;3.97;2.95;;;19.00;58.10;;;;;;5039602;28;20043;-56
2023/04/26 12:24:32;;;;;;;3.67;3.28;;;18.90;57.80;;;;;;5037861;28;20047;-58
2023/04/26 12:26:58;;;;;;;3.78;3.17;;;18.80;57.90;;;;;;5039834;28;20036;-59
2023/04/26 12:29:23;;;;;;;3.78;3.25;;;18.80;58.00;;;;;;5040257;28;20065;-59
2023/04/26 12:31:49;;;;;;;6.22;2.90;;;18.80;58.00;;;;;;5038003;28;20124;-56
2023/04/26 12:34:15;;;;;;;3.92;2.97;;;18.80;58.00;;;;;;5046407;28;20157;-59
2023/04/26 12:36:43;;;;;;;4.65;3.50;;;18.80;58.00;;;;;;5044096;28;20459;-59
2023/04/26 12:39:12;;;;;;;4.00;3.47;;;18.70;58.10;;;;;;5041094;28;20033;-57
2023/04/26 12:41:38;;;;;;;3.63;3.03;;;18.60;58.20;;;;;;5041915;28;20025;-58
2023/04/26 12:44:04;;;;;;;4.47;3.30;;;18.50;58.40;;;;;;5045083;28;20040;-59
2023/04/26 12:46:30;;;;;;;4.63;3.65;;;18.40;58.60;;;;;;5038187;28;20036;-59